createdAt,value
2023-03-10T00:00:22.148Z,80.88
2023-03-10T00:02:50.094Z,83.07
2023-03-10T00:05:19.073Z,81.59
2023-03-10T00:07:46.911Z,80.89
2023-03-10T00:10:14.798Z,80.47
2023-03-10T00:12:41.376Z,77.69
2023-03-10T00:15:08.843Z,79.39
2023-03-10T00:17:35.378Z,77.51
2023-03-10T00:20:02.280Z,76.30
2023-03-10T00:22:28.723Z,77.71
2023-03-10T00:24:55.175Z,78.17
2023-03-10T00:27:21.652Z,77.51
2023-03-10T00:29:51.826Z,77.66
2023-03-10T00:32:18.602Z,77.24
2023-03-10T00:34:46.098Z,77.69
2023-03-10T00:37:12.610Z,79.38
2023-03-10T00:39:39.238Z,79.05
2023-03-10T00:42:06.046Z,80.39
2023-03-10T00:44:32.541Z,84.36
2023-03-10T00:46:59.037Z,80.88
2023-03-10T00:49:25.523Z,79.92
2023-03-10T00:51:51.951Z,80.23
2023-03-10T00:54:18.706Z,80.46
2023-03-10T00:56:45.180Z,81.87
2023-03-10T00:59:12.315Z,82.15
2023-03-10T01:01:41.659Z,82.17
2023-03-10T01:04:16.374Z,82.33
2023-03-10T01:06:44.503Z,82.64
2023-03-10T01:09:11.138Z,83.00
2023-03-10T01:11:37.643Z,82.93
2023-03-10T01:14:07.417Z,85.20
2023-03-10T01:16:34.147Z,81.94
2023-03-10T01:19:00.726Z,83.49
2023-03-10T01:21:30.770Z,82.74
2023-03-10T01:23:57.690Z,84.33
2023-03-10T01:26:24.350Z,83.28
2023-03-10T01:28:50.873Z,85.40
2023-03-10T01:31:18.376Z,84.55
2023-03-10T01:33:45.996Z,85.12
2023-03-10T01:36:17.592Z,86.16
2023-03-10T01:38:46.478Z,85.58
2023-03-10T01:41:14.127Z,86.69
2023-03-10T01:43:42.780Z,88.82
2023-03-10T01:46:40.489Z,88.12
2023-03-10T01:49:24.358Z,87.76
2023-03-10T01:51:59.625Z,88.51
2023-03-10T01:54:32.727Z,88.04
2023-03-10T01:56:59.659Z,88.23
2023-03-10T01:59:27.477Z,88.96
2023-03-10T02:01:57.684Z,90.22
2023-03-10T02:04:44.744Z,91.13
2023-03-10T02:07:12.932Z,90.02
2023-03-10T02:09:43.056Z,92.44
2023-03-10T02:12:10.648Z,92.91
2023-03-10T02:14:37.709Z,92.43
2023-03-10T02:17:07.062Z,90.69
2023-03-10T02:19:38.319Z,91.08
2023-03-10T02:22:11.615Z,88.94
2023-03-10T02:24:46.956Z,83.72
2023-03-10T02:27:19.269Z,82.84
2023-03-10T02:29:59.216Z,80.92
2023-03-10T02:32:33.726Z,79.55
2023-03-10T02:35:00.851Z,79.91
2023-03-10T02:37:30.582Z,78.32
2023-03-10T02:39:58.714Z,78.88
2023-03-10T02:42:32.671Z,77.16
2023-03-10T02:45:00.151Z,76.95
2023-03-10T02:47:26.711Z,78.53
2023-03-10T02:49:53.274Z,77.16
2023-03-10T02:52:29.144Z,78.55
2023-03-10T02:54:55.813Z,77.66
2023-03-10T02:57:22.311Z,79.05
2023-03-10T02:59:49.012Z,81.83
2023-03-10T03:02:15.489Z,79.93
2023-03-10T03:04:42.028Z,78.89
2023-03-10T03:07:08.687Z,79.16
2023-03-10T03:09:35.936Z,78.87
2023-03-10T03:12:02.852Z,80.64
2023-03-10T03:14:29.755Z,82.11
2023-03-10T03:16:57.087Z,79.37
2023-03-10T03:19:23.660Z,80.80
2023-03-10T03:21:50.341Z,80.56
2023-03-10T03:24:20.845Z,78.29
2023-03-10T03:26:47.743Z,80.20
2023-03-10T03:29:18.084Z,78.92
2023-03-10T03:31:45.495Z,80.65
2023-03-10T03:34:20.817Z,79.35
2023-03-10T03:36:48.970Z,79.93
2023-03-10T03:39:20.850Z,83.38
2023-03-10T03:41:53.407Z,82.28
2023-03-10T03:44:20.400Z,86.00
2023-03-10T03:46:48.481Z,84.92
2023-03-10T03:49:15.070Z,85.21
2023-03-10T03:51:42.276Z,90.55
2023-03-10T03:54:09.784Z,89.71
2023-03-10T03:56:38.567Z,89.10
2023-03-10T03:59:05.792Z,86.58
2023-03-10T04:01:33.012Z,86.50
2023-03-10T04:04:00.344Z,86.40
2023-03-10T04:06:27.448Z,87.52
2023-03-10T04:08:55.045Z,87.27
2023-03-10T04:11:23.722Z,91.08
2023-03-10T04:13:51.040Z,89.06
2023-03-10T04:16:18.429Z,90.45
2023-03-10T04:18:45.495Z,90.54
2023-03-10T04:21:14.444Z,88.82
2023-03-10T04:23:42.222Z,90.87
2023-03-10T04:26:11.476Z,91.24
2023-03-10T04:28:39.445Z,90.54
2023-03-10T04:31:14.637Z,90.05
2023-03-10T04:33:42.233Z,89.60
2023-03-10T04:36:09.686Z,89.85
2023-03-10T04:38:36.735Z,89.72
2023-03-10T04:41:05.093Z,90.18
2023-03-10T04:43:37.304Z,91.82
2023-03-10T04:46:05.350Z,90.54
2023-03-10T04:48:32.646Z,90.28
2023-03-10T04:51:01.571Z,90.91
2023-03-10T04:53:32.653Z,89.70
2023-03-10T04:56:02.097Z,88.63
2023-03-10T04:58:49.313Z,86.30
2023-03-10T05:01:16.350Z,84.25
2023-03-10T05:03:47.689Z,84.50
2023-03-10T05:06:20.417Z,83.04
2023-03-10T05:08:55.536Z,83.38
2023-03-10T05:11:24.035Z,84.32
2023-03-10T05:13:51.171Z,83.94
2023-03-10T05:16:20.521Z,84.51
2023-03-10T05:18:48.258Z,86.96
2023-03-10T05:21:18.976Z,86.22
2023-03-10T05:23:46.273Z,86.57
2023-03-10T05:26:14.808Z,87.28
2023-03-10T05:28:42.006Z,88.86
2023-03-10T05:31:11.214Z,88.95
2023-03-10T05:33:38.974Z,90.44
2023-03-10T05:36:07.907Z,91.19
2023-03-10T05:38:35.987Z,92.94
2023-03-10T05:41:09.446Z,92.63
2023-03-10T05:43:37.266Z,92.27
2023-03-10T05:46:04.866Z,93.99
2023-03-10T05:48:35.795Z,94.61
2023-03-10T05:51:08.073Z,95.07
2023-03-10T05:53:36.598Z,96.63
2023-03-10T05:56:07.116Z,96.31
2023-03-10T05:58:33.868Z,98.42
2023-03-10T06:01:00.744Z,98.04
2023-03-10T06:03:28.732Z,98.85
2023-03-10T06:05:59.314Z,99.52
2023-03-10T06:08:29.783Z,100.00
2023-03-10T06:10:57.586Z,100.00
2023-03-10T06:13:24.972Z,100.00
2023-03-10T06:15:53.331Z,100.00
2023-03-10T06:18:20.806Z,100.00
2023-03-10T06:20:48.097Z,100.00
2023-03-10T06:23:16.052Z,100.00
2023-03-10T06:25:42.999Z,100.00
2023-03-10T06:28:10.892Z,100.00
2023-03-10T06:30:37.821Z,100.00
2023-03-10T06:33:04.669Z,100.00
2023-03-10T06:35:32.325Z,100.00
2023-03-10T06:37:58.850Z,100.00
2023-03-10T06:40:25.357Z,100.00
2023-03-10T06:42:51.925Z,100.00
2023-03-10T06:45:18.454Z,100.00
2023-03-10T06:47:45.332Z,100.00
2023-03-10T06:50:14.780Z,100.00
2023-03-10T06:52:42.504Z,100.00
2023-03-10T06:55:10.735Z,100.00
2023-03-10T06:57:37.797Z,100.00
2023-03-10T07:00:06.876Z,100.00
2023-03-10T07:02:33.332Z,100.00
2023-03-10T07:05:00.259Z,100.00
2023-03-10T07:07:27.207Z,99.78
2023-03-10T07:09:54.356Z,96.93
2023-03-10T07:12:21.116Z,96.20
2023-03-10T07:14:48.326Z,95.95
2023-03-10T07:17:15.009Z,98.20
2023-03-10T07:19:49.405Z,98.90
2023-03-10T07:22:16.334Z,97.18
2023-03-10T07:24:43.258Z,98.18
2023-03-10T07:27:10.330Z,96.99
2023-03-10T07:29:37.513Z,95.75
2023-03-10T07:32:04.733Z,95.67
2023-03-10T07:34:31.580Z,95.40
2023-03-10T07:36:58.827Z,95.10
2023-03-10T07:39:25.829Z,93.63
2023-03-10T07:41:52.785Z,94.02
2023-03-10T07:44:19.612Z,93.36
2023-03-10T07:46:46.455Z,93.18
2023-03-10T07:49:13.402Z,93.45
2023-03-10T07:51:41.419Z,90.77
2023-03-10T07:54:09.444Z,90.99
2023-03-10T07:56:36.678Z,90.86
2023-03-10T07:59:03.747Z,91.89
2023-03-10T08:01:30.977Z,89.53
2023-03-10T08:03:58.408Z,89.69
2023-03-10T08:06:29.399Z,89.11
2023-03-10T08:08:57.125Z,89.55
2023-03-10T08:11:24.578Z,87.77
2023-03-10T08:13:51.586Z,86.39
2023-03-10T08:16:20.967Z,86.62
2023-03-10T08:18:53.310Z,86.40
2023-03-10T08:21:20.469Z,85.58
2023-03-10T08:23:47.523Z,83.28
2023-03-10T08:26:16.755Z,84.28
2023-03-10T08:28:43.816Z,83.15
2023-03-10T08:31:16.680Z,82.04
2023-03-10T08:33:44.696Z,85.76
2023-03-10T08:36:15.872Z,86.24
2023-03-10T08:38:43.954Z,83.41
2023-03-10T08:41:20.226Z,82.76
2023-03-10T08:43:49.267Z,84.19
2023-03-10T08:46:18.173Z,84.72
2023-03-10T08:48:45.219Z,84.63
2023-03-10T08:51:15.750Z,84.44
2023-03-10T08:53:44.833Z,86.45
2023-03-10T08:56:11.584Z,84.53
2023-03-10T08:58:38.785Z,85.07
2023-03-10T09:01:05.840Z,82.59
2023-03-10T09:03:36.178Z,81.04
2023-03-10T09:06:04.143Z,80.61
2023-03-10T09:08:31.157Z,84.23
2023-03-10T09:10:58.043Z,77.97
2023-03-10T09:13:25.018Z,76.89
2023-03-10T09:15:53.069Z,76.25
2023-03-10T09:18:20.749Z,72.95
2023-03-10T09:20:47.626Z,72.40
2023-03-10T09:23:16.015Z,71.28
2023-03-10T09:25:43.327Z,72.03
2023-03-10T09:28:11.631Z,70.42
2023-03-10T09:30:41.600Z,68.95
2023-03-10T09:33:17.615Z,69.97
2023-03-10T09:35:52.732Z,67.73
2023-03-10T09:38:25.418Z,70.68
2023-03-10T09:41:26.311Z,65.87
2023-03-10T09:44:30.677Z,68.78
2023-03-10T09:47:09.352Z,69.24
2023-03-10T09:50:04.806Z,67.74
2023-03-10T09:52:40.789Z,66.24
2023-03-10T09:55:22.173Z,68.39
2023-03-10T09:57:55.119Z,69.62
2023-03-10T10:00:27.168Z,70.94
2023-03-10T10:03:10.118Z,72.19
2023-03-10T10:05:38.970Z,75.14
2023-03-10T10:08:26.125Z,80.84
2023-03-10T10:10:58.510Z,86.00
2023-03-10T10:13:28.166Z,94.13
2023-03-10T10:16:34.647Z,96.79
2023-03-10T10:19:29.886Z,95.16
2023-03-10T10:22:10.310Z,92.94
2023-03-10T10:24:36.838Z,94.16
2023-03-10T10:27:03.466Z,89.19
2023-03-10T10:29:36.596Z,91.29
2023-03-10T10:32:11.019Z,90.53
2023-03-10T10:34:40.508Z,93.62
2023-03-10T10:37:30.681Z,95.34
2023-03-10T10:39:59.610Z,98.16
2023-03-10T10:42:29.788Z,100.00
2023-03-10T10:44:58.958Z,100.00
2023-03-10T10:47:28.397Z,100.00
2023-03-10T10:50:08.269Z,100.00
2023-03-10T10:52:34.737Z,100.00
2023-03-10T10:55:02.335Z,100.00
2023-03-10T10:57:33.023Z,96.87
2023-03-10T11:00:25.159Z,98.44
2023-03-10T11:02:53.016Z,95.53
2023-03-10T11:05:37.540Z,95.36
2023-03-10T11:08:32.991Z,94.10
2023-03-10T11:11:08.152Z,90.95
2023-03-10T11:13:43.964Z,93.16
2023-03-10T11:16:25.747Z,91.05
2023-03-10T11:19:28.746Z,90.90
2023-03-10T11:22:03.506Z,88.32
2023-03-10T11:24:40.312Z,92.49
2023-03-10T11:27:26.898Z,89.59
2023-03-10T11:30:05.943Z,87.27
2023-03-10T11:32:45.784Z,88.27
2023-03-10T11:35:27.874Z,87.69
2023-03-10T11:38:31.954Z,84.59
2023-03-10T11:41:06.039Z,81.87
2023-03-10T11:43:57.008Z,77.74
2023-03-10T11:47:06.907Z,78.88
2023-03-10T11:49:38.184Z,77.76
2023-03-10T11:52:11.896Z,77.08
2023-03-10T11:54:45.093Z,74.46
2023-03-10T11:57:20.563Z,69.69
2023-03-10T12:00:02.406Z,67.31
2023-03-10T12:02:41.558Z,67.87
2023-03-10T12:05:17.395Z,68.98
2023-03-10T12:07:51.260Z,67.73
2023-03-10T12:10:21.776Z,66.98
2023-03-10T12:12:51.005Z,66.33
2023-03-10T12:15:22.298Z,63.94
2023-03-10T12:17:50.239Z,65.33
2023-03-10T12:20:17.373Z,66.80
2023-03-10T12:22:50.850Z,63.71
2023-03-10T12:25:29.630Z,65.09
2023-03-10T12:28:25.588Z,64.27
2023-03-10T12:31:03.406Z,62.48
2023-03-10T12:33:45.133Z,65.86
2023-03-10T12:36:31.823Z,64.91
2023-03-10T12:39:20.168Z,67.48
2023-03-10T12:41:52.085Z,68.34
2023-03-10T12:44:33.920Z,61.79
2023-03-10T12:47:17.653Z,63.90
2023-03-10T12:49:55.442Z,60.75
2023-03-10T12:52:36.273Z,64.42
2023-03-10T12:55:14.311Z,60.88
2023-03-10T12:57:56.397Z,63.16
2023-03-10T13:00:45.995Z,63.10
2023-03-10T13:03:35.200Z,61.79
2023-03-10T13:06:22.086Z,64.35
2023-03-10T13:09:10.104Z,64.46
2023-03-10T13:11:43.108Z,63.34
2023-03-10T13:14:13.992Z,67.22
2023-03-10T13:16:41.455Z,65.48
2023-03-10T13:19:20.908Z,65.59
2023-03-10T13:21:49.051Z,67.43
2023-03-10T13:24:30.818Z,67.33
2023-03-10T13:27:03.498Z,67.43
2023-03-10T13:29:29.983Z,67.13
2023-03-10T13:31:56.733Z,69.30
2023-03-10T13:34:27.838Z,66.85
2023-03-10T13:37:03.095Z,69.22
2023-03-10T13:39:30.052Z,70.34
2023-03-10T13:42:01.996Z,70.23
2023-03-10T13:44:39.893Z,69.36
2023-03-10T13:47:19.087Z,69.20
2023-03-10T13:49:50.528Z,69.55
2023-03-10T13:52:20.567Z,71.15
2023-03-10T13:54:47.525Z,70.86
2023-03-10T13:57:14.417Z,70.79
2023-03-10T13:59:41.241Z,71.16
2023-03-10T14:02:19.262Z,72.14
2023-03-10T14:04:51.675Z,72.69
2023-03-10T14:07:21.021Z,71.17
2023-03-10T14:10:03.879Z,72.91
2023-03-10T14:12:41.082Z,72.45
2023-03-10T14:15:26.740Z,72.95
2023-03-10T14:18:13.317Z,74.60
2023-03-10T14:20:45.036Z,75.33
2023-03-10T14:23:35.563Z,74.74
2023-03-10T14:26:02.164Z,74.76
2023-03-10T14:28:31.340Z,73.15
2023-03-10T14:31:06.680Z,74.31
2023-03-10T14:33:33.474Z,74.54
2023-03-10T14:35:59.999Z,71.28
2023-03-10T14:38:26.585Z,73.82
2023-03-10T14:40:54.955Z,71.99
2023-03-10T14:43:25.451Z,72.96
2023-03-10T14:45:54.773Z,72.67
2023-03-10T14:48:24.611Z,74.80
2023-03-10T14:50:51.654Z,74.69
2023-03-10T14:53:21.486Z,73.74
2023-03-10T14:55:51.576Z,76.26
2023-03-10T14:58:21.778Z,77.70
2023-03-10T15:00:49.509Z,78.02
2023-03-10T15:03:16.310Z,79.27
2023-03-10T15:05:48.794Z,83.13
2023-03-10T15:08:17.241Z,86.14
2023-03-10T15:10:48.272Z,89.62
2023-03-10T15:13:18.307Z,92.54
2023-03-10T15:15:47.020Z,92.72
2023-03-10T15:18:16.901Z,93.82
2023-03-10T15:20:43.620Z,95.22
2023-03-10T15:23:12.493Z,97.56
2023-03-10T15:25:41.241Z,97.11
2023-03-10T15:28:07.738Z,96.41
2023-03-10T15:30:36.366Z,97.43
2023-03-10T15:33:03.713Z,98.39
2023-03-10T15:35:30.961Z,100.00
2023-03-10T15:37:58.074Z,99.22
2023-03-10T15:40:27.068Z,100.00
2023-03-10T15:42:55.784Z,100.00
2023-03-10T15:45:22.427Z,100.00
2023-03-10T15:47:48.987Z,100.00
2023-03-10T15:50:19.134Z,100.00
2023-03-10T15:52:47.246Z,100.00
2023-03-10T15:55:14.957Z,100.00
2023-03-10T15:57:41.881Z,100.00
2023-03-10T16:00:09.192Z,100.00
2023-03-10T16:02:35.677Z,100.00
2023-03-10T16:05:02.338Z,100.00
2023-03-10T16:07:29.018Z,100.00
2023-03-10T16:09:55.539Z,100.00
2023-03-10T16:12:23.361Z,100.00
2023-03-10T16:14:50.117Z,100.00
2023-03-10T16:17:17.091Z,100.00
2023-03-10T16:19:43.781Z,100.00
2023-03-10T16:22:10.645Z,100.00
2023-03-10T16:24:37.150Z,100.00
2023-03-10T16:27:03.737Z,100.00
2023-03-10T16:29:30.425Z,100.00
2023-03-10T16:31:56.934Z,100.00
2023-03-10T16:34:23.532Z,100.00
2023-03-10T16:36:50.640Z,100.00
2023-03-10T16:39:17.957Z,100.00
2023-03-10T16:41:44.647Z,100.00
2023-03-10T16:44:13.171Z,100.00
2023-03-10T16:46:39.787Z,100.00
2023-03-10T16:49:07.232Z,100.00
2023-03-10T16:51:35.298Z,100.00
2023-03-10T16:54:05.020Z,100.00
2023-03-10T16:56:33.502Z,100.00
2023-03-10T16:59:00.256Z,100.00
2023-03-10T17:01:26.966Z,100.00
2023-03-10T17:03:54.232Z,100.00
2023-03-10T17:06:24.178Z,100.00
2023-03-10T17:08:51.641Z,100.00
2023-03-10T17:11:30.446Z,100.00
2023-03-10T17:14:00.146Z,100.00
2023-03-10T17:16:29.549Z,100.00
2023-03-10T17:18:58.223Z,100.00
2023-03-10T17:21:27.582Z,100.00
2023-03-10T17:23:54.667Z,100.00
2023-03-10T17:26:22.045Z,100.00
2023-03-10T17:28:50.749Z,100.00
2023-03-10T17:31:23.327Z,97.97
2023-03-10T17:33:50.287Z,99.12
2023-03-10T17:36:17.625Z,97.13
2023-03-10T17:38:45.258Z,94.42
2023-03-10T17:41:14.884Z,94.77
2023-03-10T17:43:42.099Z,97.45
2023-03-10T17:46:21.600Z,97.73
2023-03-10T17:48:48.584Z,95.85
2023-03-10T17:51:17.489Z,96.58
2023-03-10T17:53:45.148Z,97.08
2023-03-10T17:56:12.603Z,94.33
2023-03-10T17:58:39.695Z,93.16
2023-03-10T18:01:14.827Z,94.57
2023-03-10T18:03:41.759Z,92.57
2023-03-10T18:06:14.271Z,93.48
2023-03-10T18:08:41.679Z,91.68
2023-03-10T18:11:08.164Z,95.90
2023-03-10T18:13:35.756Z,93.00
2023-03-10T18:16:02.757Z,94.01
2023-03-10T18:18:29.308Z,94.27
2023-03-10T18:20:56.012Z,94.21
2023-03-10T18:23:23.183Z,95.65
2023-03-10T18:25:50.787Z,92.71
2023-03-10T18:28:20.674Z,93.30
2023-03-10T18:30:49.839Z,95.07
2023-03-10T18:33:16.503Z,93.94
2023-03-10T18:35:45.098Z,92.01
2023-03-10T18:38:13.141Z,92.07
2023-03-10T18:40:40.871Z,92.87
2023-03-10T18:43:07.763Z,94.65
2023-03-10T18:45:34.336Z,94.11
2023-03-10T18:48:00.938Z,96.69
2023-03-10T18:50:27.377Z,100.00
2023-03-10T18:52:53.808Z,100.00
2023-03-10T18:55:21.334Z,100.00
2023-03-10T18:57:47.811Z,100.00
2023-03-10T19:00:15.512Z,100.00
2023-03-10T19:02:42.767Z,100.00
2023-03-10T19:05:14.537Z,100.00
2023-03-10T19:07:41.066Z,100.00
2023-03-10T19:10:08.527Z,100.00
2023-03-10T19:12:34.964Z,100.00
2023-03-10T19:15:06.717Z,100.00
2023-03-10T19:17:33.625Z,100.00
2023-03-10T19:20:00.125Z,100.00
2023-03-10T19:22:27.274Z,100.00
2023-03-10T19:24:54.059Z,100.00
2023-03-10T19:27:20.477Z,100.00
2023-03-10T19:29:51.936Z,100.00
2023-03-10T19:32:19.313Z,100.00
2023-03-10T19:34:46.546Z,100.00
2023-03-10T19:37:13.199Z,100.00
2023-03-10T19:39:39.784Z,100.00
2023-03-10T19:42:06.388Z,100.00
2023-03-10T19:44:33.198Z,100.00
2023-03-10T19:47:00.237Z,100.00
2023-03-10T19:49:26.791Z,100.00
2023-03-10T19:51:53.251Z,100.00
2023-03-10T19:54:19.734Z,100.00
2023-03-10T19:56:46.206Z,100.00
2023-03-10T19:59:12.749Z,100.00
2023-03-10T20:01:40.318Z,100.00
2023-03-10T20:04:06.931Z,100.00
2023-03-10T20:06:33.441Z,100.00
2023-03-10T20:08:59.929Z,100.00
2023-03-10T20:11:26.434Z,100.00
2023-03-10T20:13:54.290Z,100.00
2023-03-10T20:16:23.823Z,100.00
2023-03-10T20:18:50.682Z,100.00
2023-03-10T20:21:17.219Z,100.00
2023-03-10T20:23:47.480Z,100.00
2023-03-10T20:26:14.585Z,100.00
2023-03-10T20:28:41.601Z,100.00
2023-03-10T20:31:08.418Z,100.00
2023-03-10T20:33:36.509Z,100.00
2023-03-10T20:36:03.244Z,100.00
2023-03-10T20:38:29.826Z,100.00
2023-03-10T20:40:56.319Z,100.00
2023-03-10T20:43:22.852Z,100.00
2023-03-10T20:45:52.193Z,100.00
2023-03-10T20:48:18.694Z,100.00
2023-03-10T20:50:45.260Z,100.00
2023-03-10T20:53:11.728Z,100.00
2023-03-10T20:55:38.295Z,100.00
2023-03-10T20:58:04.834Z,100.00
2023-03-10T21:00:31.396Z,100.00
2023-03-10T21:02:59.393Z,100.00
2023-03-10T21:05:27.760Z,100.00
2023-03-10T21:07:54.990Z,100.00
2023-03-10T21:10:22.524Z,100.00
2023-03-10T21:12:49.615Z,100.00
2023-03-10T21:15:16.715Z,100.00
2023-03-10T21:17:44.184Z,100.00
2023-03-10T21:20:15.350Z,100.00
2023-03-10T21:22:41.891Z,100.00
2023-03-10T21:25:13.883Z,100.00
2023-03-10T21:27:40.511Z,100.00
2023-03-10T21:30:09.812Z,100.00
2023-03-10T21:32:36.928Z,100.00
2023-03-10T21:35:04.692Z,100.00
2023-03-10T21:37:34.892Z,100.00
2023-03-10T21:40:05.186Z,100.00
2023-03-10T21:42:31.654Z,100.00
2023-03-10T21:44:58.093Z,100.00
2023-03-10T21:47:24.598Z,100.00
2023-03-10T21:49:51.083Z,100.00
2023-03-10T21:52:18.106Z,100.00
2023-03-10T21:54:44.638Z,100.00
2023-03-10T21:57:11.832Z,100.00
2023-03-10T21:59:39.079Z,100.00
2023-03-10T22:02:05.647Z,100.00
2023-03-10T22:04:32.845Z,100.00
2023-03-10T22:06:59.975Z,100.00
2023-03-10T22:09:26.769Z,100.00
2023-03-10T22:11:53.211Z,100.00
2023-03-10T22:14:19.681Z,100.00
2023-03-10T22:16:46.126Z,100.00
2023-03-10T22:19:14.991Z,100.00
2023-03-10T22:21:41.497Z,100.00
2023-03-10T22:24:08.014Z,100.00
2023-03-10T22:26:34.496Z,100.00
2023-03-10T22:29:01.056Z,100.00
2023-03-10T22:31:27.808Z,100.00
2023-03-10T22:33:54.285Z,100.00
2023-03-10T22:36:20.881Z,100.00
2023-03-10T22:38:47.382Z,100.00
2023-03-10T22:41:14.432Z,100.00
2023-03-10T22:43:41.216Z,100.00
2023-03-10T22:46:16.011Z,100.00
2023-03-10T22:48:43.470Z,100.00
2023-03-10T22:51:16.461Z,100.00
2023-03-10T22:53:43.387Z,100.00
2023-03-10T22:56:09.824Z,100.00
2023-03-10T22:58:37.577Z,100.00
2023-03-10T23:01:04.536Z,99.53
2023-03-10T23:03:31.144Z,93.43
2023-03-10T23:05:58.520Z,95.78
2023-03-10T23:08:25.083Z,95.25
2023-03-10T23:10:52.069Z,91.40
2023-03-10T23:13:18.665Z,92.07
2023-03-10T23:15:45.628Z,94.87
2023-03-10T23:18:12.367Z,94.00
2023-03-10T23:20:47.680Z,93.79
2023-03-10T23:23:17.253Z,91.92
2023-03-10T23:25:47.196Z,95.63
2023-03-10T23:28:15.347Z,92.74
2023-03-10T23:30:43.314Z,93.31
2023-03-10T23:33:13.404Z,94.42
2023-03-10T23:35:40.152Z,93.13
2023-03-10T23:38:06.889Z,93.17
2023-03-10T23:40:35.000Z,95.51
2023-03-10T23:43:03.794Z,94.80
2023-03-10T23:45:31.610Z,93.88
2023-03-10T23:48:01.291Z,95.59
2023-03-10T23:50:35.998Z,86.04
2023-03-10T23:53:03.985Z,88.60
2023-03-10T23:55:34.602Z,87.75
2023-03-10T23:58:01.180Z,85.94
